createdAt,value
2022-12-29T00:01:11.259Z,8.80
2022-12-29T00:03:39.410Z,8.80
2022-12-29T00:06:07.499Z,8.80
2022-12-29T00:08:41.575Z,8.80
2022-12-29T00:11:16.783Z,8.80
2022-12-29T00:14:02.752Z,8.80
2022-12-29T00:16:33.872Z,8.80
2022-12-29T00:19:02.916Z,8.80
2022-12-29T00:21:48.590Z,8.80
2022-12-29T00:24:37.840Z,8.80
2022-12-29T00:27:32.323Z,8.80
2022-12-29T00:30:18.897Z,8.80
2022-12-29T00:33:04.350Z,8.80
2022-12-29T00:35:40.108Z,8.90
2022-12-29T00:38:29.767Z,9.00
2022-12-29T00:41:15.398Z,9.00
2022-12-29T00:44:01.884Z,9.00
2022-12-29T00:46:29.891Z,9.00
2022-12-29T00:49:15.785Z,9.10
2022-12-29T00:51:46.089Z,9.00
2022-12-29T00:54:14.591Z,9.00
2022-12-29T00:56:42.570Z,9.10
2022-12-29T00:59:13.160Z,9.20
2022-12-29T01:01:42.648Z,9.20
2022-12-29T01:04:11.721Z,9.30
2022-12-29T01:06:42.542Z,9.40
2022-12-29T01:09:29.545Z,9.40
2022-12-29T01:11:57.815Z,9.40
2022-12-29T01:14:30.366Z,9.40
2022-12-29T01:16:59.402Z,9.50
2022-12-29T01:19:27.981Z,9.40
2022-12-29T01:21:57.757Z,9.50
2022-12-29T01:24:26.939Z,9.50
2022-12-29T01:26:55.410Z,9.50
2022-12-29T01:29:23.720Z,9.50
2022-12-29T01:31:53.080Z,9.60
2022-12-29T01:34:21.022Z,9.60
2022-12-29T01:36:48.877Z,9.60
2022-12-29T01:39:17.520Z,9.60
2022-12-29T01:41:45.391Z,9.60
2022-12-29T01:44:54.018Z,9.60
2022-12-29T01:47:37.892Z,9.60
2022-12-29T01:50:14.413Z,9.60
2022-12-29T01:52:49.801Z,9.60
2022-12-29T01:55:18.898Z,9.60
2022-12-29T01:57:54.929Z,9.60
2022-12-29T02:00:23.028Z,9.60
2022-12-29T02:02:55.868Z,9.60
2022-12-29T02:05:31.707Z,9.60
2022-12-29T02:08:00.515Z,9.50
2022-12-29T02:10:33.607Z,9.50
2022-12-29T02:13:01.756Z,9.40
2022-12-29T02:15:42.838Z,9.40
2022-12-29T02:18:37.473Z,9.40
2022-12-29T02:21:45.745Z,9.50
2022-12-29T02:24:58.447Z,9.50
2022-12-29T02:27:54.021Z,9.40
2022-12-29T02:30:49.883Z,9.40
2022-12-29T02:33:36.482Z,9.60
2022-12-29T02:36:20.441Z,9.60
2022-12-29T02:39:01.582Z,9.70
2022-12-29T02:41:35.945Z,9.70
2022-12-29T02:44:17.154Z,9.80
2022-12-29T02:46:55.296Z,9.90
2022-12-29T02:49:35.356Z,10.00
2022-12-29T02:52:09.162Z,10.00
2022-12-29T02:54:43.172Z,10.10
2022-12-29T02:57:29.556Z,10.10
2022-12-29T03:00:03.730Z,10.20
2022-12-29T03:03:18.863Z,10.30
2022-12-29T03:06:14.404Z,10.30
2022-12-29T03:08:51.718Z,10.30
2022-12-29T03:11:37.673Z,10.30
2022-12-29T03:14:37.119Z,10.30
2022-12-29T03:17:12.069Z,10.30
2022-12-29T03:19:48.515Z,10.30
2022-12-29T03:22:31.606Z,10.30
2022-12-29T03:25:20.498Z,10.30
2022-12-29T03:27:54.918Z,10.40
2022-12-29T03:30:23.554Z,10.10
2022-12-29T03:32:56.578Z,10.40
2022-12-29T03:35:33.781Z,10.40
2022-12-29T03:38:12.999Z,10.50
2022-12-29T03:40:47.536Z,10.50
2022-12-29T03:43:17.133Z,10.40
2022-12-29T03:45:47.256Z,10.50
2022-12-29T03:48:15.197Z,10.50
2022-12-29T03:50:44.834Z,10.50
2022-12-29T03:53:12.752Z,10.40
2022-12-29T03:55:40.833Z,10.40
2022-12-29T03:58:09.338Z,10.40
2022-12-29T04:00:50.915Z,10.40
2022-12-29T04:03:19.683Z,10.50
2022-12-29T04:05:48.954Z,10.50
2022-12-29T04:08:17.003Z,10.60
2022-12-29T04:10:45.161Z,10.60
2022-12-29T04:13:15.039Z,10.40
2022-12-29T04:15:44.659Z,10.40
2022-12-29T04:18:13.037Z,10.40
2022-12-29T04:20:58.827Z,10.40
2022-12-29T04:23:28.499Z,10.40
2022-12-29T04:25:56.539Z,10.30
2022-12-29T04:28:24.553Z,10.30
2022-12-29T04:31:07.559Z,10.30
2022-12-29T04:33:38.022Z,10.40
2022-12-29T04:36:06.612Z,10.40
2022-12-29T04:38:38.220Z,10.50
2022-12-29T04:41:07.456Z,10.50
2022-12-29T04:43:37.355Z,10.50
2022-12-29T04:46:24.441Z,10.40
2022-12-29T04:49:01.537Z,10.40
2022-12-29T04:51:47.476Z,10.40
2022-12-29T04:54:18.365Z,10.50
2022-12-29T04:56:51.813Z,10.50
2022-12-29T04:59:23.009Z,10.50
2022-12-29T05:01:54.253Z,10.40
2022-12-29T05:04:22.204Z,10.60
2022-12-29T05:06:50.330Z,10.60
2022-12-29T05:09:20.743Z,10.60
2022-12-29T05:11:48.740Z,10.60
2022-12-29T05:14:16.628Z,10.60
2022-12-29T05:16:46.773Z,10.70
2022-12-29T05:19:15.216Z,10.70
2022-12-29T05:21:43.140Z,10.70
2022-12-29T05:24:11.971Z,10.70
2022-12-29T05:26:41.286Z,10.60
2022-12-29T05:29:28.085Z,10.60
2022-12-29T05:31:56.590Z,10.60
2022-12-29T05:34:24.571Z,10.80
2022-12-29T05:36:52.871Z,10.80
2022-12-29T05:39:20.863Z,10.80
2022-12-29T05:41:55.544Z,10.80
2022-12-29T05:44:30.939Z,10.80
2022-12-29T05:47:17.815Z,10.90
2022-12-29T05:49:53.547Z,10.90
2022-12-29T05:52:30.654Z,11.10
2022-12-29T05:54:58.838Z,11.10
2022-12-29T05:57:29.692Z,11.10
2022-12-29T06:00:12.185Z,11.20
2022-12-29T06:02:43.084Z,11.10
2022-12-29T06:05:11.370Z,11.10
2022-12-29T06:07:40.798Z,11.10
2022-12-29T06:10:09.718Z,11.00
2022-12-29T06:12:47.109Z,11.10
2022-12-29T06:15:16.620Z,11.10
2022-12-29T06:17:46.009Z,11.10
2022-12-29T06:20:14.414Z,11.20
2022-12-29T06:22:42.684Z,11.20
2022-12-29T06:25:11.234Z,11.20
2022-12-29T06:27:40.340Z,11.30
2022-12-29T06:30:12.130Z,11.20
2022-12-29T06:32:41.526Z,11.20
2022-12-29T06:35:12.164Z,11.20
2022-12-29T06:37:45.770Z,11.20
2022-12-29T06:40:14.225Z,11.10
2022-12-29T06:43:00.948Z,11.00
2022-12-29T06:45:45.205Z,11.00
2022-12-29T06:48:13.184Z,11.10
2022-12-29T06:50:41.389Z,11.10
2022-12-29T06:53:09.608Z,11.10
2022-12-29T06:55:37.585Z,11.00
2022-12-29T06:58:05.516Z,11.00
2022-12-29T07:00:33.400Z,10.90
2022-12-29T07:03:03.250Z,10.90
2022-12-29T07:05:33.437Z,10.90
2022-12-29T07:08:01.832Z,10.90
2022-12-29T07:10:30.326Z,10.90
2022-12-29T07:12:58.275Z,10.80
2022-12-29T07:15:26.305Z,10.80
2022-12-29T07:17:54.173Z,10.80
2022-12-29T07:20:27.073Z,10.80
2022-12-29T07:22:55.355Z,10.60
2022-12-29T07:25:23.640Z,10.80
2022-12-29T07:27:51.990Z,10.80
2022-12-29T07:30:20.065Z,10.90
2022-12-29T07:32:47.927Z,10.90
2022-12-29T07:35:15.918Z,10.90
2022-12-29T07:37:46.826Z,10.90
2022-12-29T07:40:15.538Z,10.90
2022-12-29T07:42:43.757Z,10.90
2022-12-29T07:45:12.581Z,11.00
2022-12-29T07:48:05.330Z,11.10
2022-12-29T07:50:33.210Z,11.20
2022-12-29T07:53:03.785Z,11.20
2022-12-29T07:55:32.424Z,11.30
2022-12-29T07:58:00.344Z,11.30
2022-12-29T08:00:28.652Z,11.40
2022-12-29T08:02:56.572Z,11.40
2022-12-29T08:05:24.569Z,11.40
2022-12-29T08:07:52.890Z,11.40
2022-12-29T08:10:22.297Z,11.40
2022-12-29T08:12:51.132Z,11.40
2022-12-29T08:15:19.344Z,11.40
2022-12-29T08:17:47.265Z,11.50
2022-12-29T08:20:15.257Z,11.70
2022-12-29T08:22:43.230Z,11.80
2022-12-29T08:25:11.171Z,11.80
2022-12-29T08:27:40.474Z,11.80
2022-12-29T08:30:10.761Z,11.90
2022-12-29T08:32:38.715Z,12.00
2022-12-29T08:35:07.727Z,12.20
2022-12-29T08:37:36.062Z,12.20
2022-12-29T08:40:04.932Z,12.20
2022-12-29T08:42:33.158Z,12.30
2022-12-29T08:45:03.172Z,12.40
2022-12-29T08:47:31.057Z,12.40
2022-12-29T08:49:58.926Z,12.50
2022-12-29T08:52:27.113Z,12.50
2022-12-29T08:54:54.968Z,12.50
2022-12-29T08:57:23.083Z,12.40
2022-12-29T09:00:15.921Z,12.40
2022-12-29T09:02:44.004Z,12.30
2022-12-29T09:05:12.318Z,12.20
2022-12-29T09:07:40.319Z,11.90
2022-12-29T09:10:08.732Z,11.80
2022-12-29T09:12:37.046Z,11.70
2022-12-29T09:15:07.155Z,11.50
2022-12-29T09:17:46.225Z,11.40
2022-12-29T09:20:16.681Z,11.30
2022-12-29T09:22:46.354Z,11.20
2022-12-29T09:25:14.972Z,11.10
2022-12-29T09:27:43.006Z,11.10
2022-12-29T09:30:15.638Z,11.10
2022-12-29T09:32:45.929Z,11.00
2022-12-29T09:35:17.525Z,10.90
2022-12-29T09:37:45.865Z,10.70
2022-12-29T09:40:30.863Z,10.60
2022-12-29T09:43:26.291Z,10.40
2022-12-29T09:46:08.773Z,10.20
2022-12-29T09:48:46.041Z,10.10
2022-12-29T09:51:23.067Z,9.90
2022-12-29T09:53:58.746Z,9.90
2022-12-29T09:56:29.243Z,9.90
2022-12-29T09:59:04.983Z,9.90
2022-12-29T10:01:38.782Z,9.80
2022-12-29T10:04:08.260Z,9.60
2022-12-29T10:07:28.459Z,9.40
2022-12-29T10:09:53.805Z,9.30
2022-12-29T10:12:43.098Z,9.30
2022-12-29T10:15:28.660Z,9.40
2022-12-29T10:18:12.571Z,9.50
2022-12-29T10:20:56.068Z,9.60
2022-12-29T10:23:38.395Z,9.60
2022-12-29T10:26:14.956Z,9.60
2022-12-29T10:28:49.880Z,9.60
2022-12-29T10:31:23.808Z,9.60
2022-12-29T10:33:58.518Z,9.60
2022-12-29T10:36:36.421Z,9.70
2022-12-29T10:39:17.846Z,9.70
2022-12-29T10:41:53.153Z,9.70
2022-12-29T10:44:22.708Z,9.70
2022-12-29T10:47:01.121Z,9.70
2022-12-29T10:49:32.402Z,9.80
2022-12-29T10:52:05.968Z,9.90
2022-12-29T10:54:45.156Z,10.00
2022-12-29T10:57:26.224Z,10.10
2022-12-29T10:59:54.209Z,10.30
2022-12-29T11:02:46.504Z,10.50
2022-12-29T11:05:26.134Z,10.70
2022-12-29T11:08:03.010Z,10.90
2022-12-29T11:10:39.772Z,11.10
2022-12-29T11:13:17.874Z,11.20
2022-12-29T11:15:48.925Z,11.50
2022-12-29T11:18:23.481Z,11.70
2022-12-29T11:20:54.754Z,11.80
2022-12-29T11:23:30.867Z,11.90
2022-12-29T11:26:22.353Z,12.10
2022-12-29T11:29:18.422Z,12.20
2022-12-29T11:31:49.832Z,12.30
2022-12-29T11:34:26.099Z,12.40
2022-12-29T11:37:02.107Z,12.50
2022-12-29T11:39:44.540Z,12.60
2022-12-29T11:42:18.958Z,12.70
2022-12-29T11:44:50.556Z,12.90
2022-12-29T11:47:32.694Z,12.90
2022-12-29T11:50:04.826Z,12.80
2022-12-29T11:52:40.251Z,12.70
2022-12-29T11:55:23.015Z,12.60
2022-12-29T11:57:54.114Z,12.40
2022-12-29T12:00:25.915Z,12.30
2022-12-29T12:03:02.488Z,12.20
2022-12-29T12:05:43.899Z,12.10
2022-12-29T12:08:21.360Z,11.90
2022-12-29T12:11:00.837Z,11.90
2022-12-29T12:13:41.042Z,11.90
2022-12-29T12:16:16.299Z,11.90
2022-12-29T12:18:54.006Z,11.90
2022-12-29T12:21:32.589Z,11.30
2022-12-29T12:24:30.120Z,11.70
2022-12-29T12:27:05.776Z,11.60
2022-12-29T12:29:44.913Z,11.60
2022-12-29T12:32:22.409Z,11.60
2022-12-29T12:34:51.539Z,11.50
2022-12-29T12:37:54.207Z,11.40
2022-12-29T12:40:58.879Z,11.30
2022-12-29T12:43:46.207Z,11.20
2022-12-29T12:46:38.989Z,11.20
2022-12-29T12:49:39.644Z,11.20
2022-12-29T12:52:18.924Z,11.30
2022-12-29T12:55:19.939Z,11.30
2022-12-29T12:58:04.753Z,11.30
2022-12-29T13:00:49.117Z,11.30
2022-12-29T13:03:37.488Z,11.30
2022-12-29T13:06:24.408Z,11.40
2022-12-29T13:09:15.075Z,11.30
2022-12-29T13:12:03.814Z,11.30
2022-12-29T13:14:50.743Z,11.30
2022-12-29T13:17:32.189Z,11.30
2022-12-29T13:20:13.156Z,11.30
2022-12-29T13:22:54.317Z,11.30
2022-12-29T13:25:35.905Z,11.30
2022-12-29T13:28:15.949Z,11.30
2022-12-29T13:30:55.583Z,11.20
2022-12-29T13:33:35.338Z,11.20
2022-12-29T13:36:13.476Z,11.20
2022-12-29T13:38:46.297Z,11.20
2022-12-29T13:41:29.830Z,11.10
2022-12-29T13:44:01.484Z,11.20
2022-12-29T13:46:35.314Z,11.10
2022-12-29T13:49:10.528Z,11.10
2022-12-29T13:51:45.161Z,11.10
2022-12-29T13:54:30.065Z,11.10
2022-12-29T13:57:10.410Z,11.10
2022-12-29T13:59:52.727Z,11.10
2022-12-29T14:02:44.832Z,11.00
2022-12-29T14:05:34.365Z,11.00
2022-12-29T14:08:07.045Z,11.10
2022-12-29T14:10:38.801Z,11.10
2022-12-29T14:13:14.851Z,11.10
2022-12-29T14:15:46.488Z,11.00
2022-12-29T14:18:20.681Z,11.00
2022-12-29T14:20:56.554Z,11.00
2022-12-29T14:23:41.696Z,11.00
2022-12-29T14:26:17.573Z,11.00
2022-12-29T14:28:48.171Z,11.00
2022-12-29T14:31:43.189Z,11.00
2022-12-29T14:34:32.306Z,10.90
2022-12-29T14:37:03.909Z,10.90
2022-12-29T14:39:39.942Z,10.90
2022-12-29T14:42:16.181Z,10.80
2022-12-29T14:44:54.283Z,10.90
2022-12-29T14:47:33.169Z,10.80
2022-12-29T14:50:10.670Z,10.70
2022-12-29T14:52:52.055Z,10.70
2022-12-29T14:55:40.709Z,10.60
2022-12-29T14:58:17.887Z,10.60
2022-12-29T15:00:47.846Z,10.50
2022-12-29T15:03:23.994Z,10.40
2022-12-29T15:05:57.278Z,10.40
2022-12-29T15:08:32.550Z,10.40
2022-12-29T15:11:07.920Z,10.40
2022-12-29T15:13:40.088Z,10.30
2022-12-29T15:16:24.841Z,10.20
2022-12-29T15:18:52.855Z,10.10
2022-12-29T15:21:27.238Z,10.10
2022-12-29T15:23:56.826Z,10.00
2022-12-29T15:26:39.055Z,9.90
2022-12-29T15:29:07.130Z,10.00
2022-12-29T15:31:35.130Z,9.90
2022-12-29T15:34:13.461Z,9.80
2022-12-29T15:36:43.174Z,9.70
2022-12-29T15:39:22.816Z,9.60
2022-12-29T15:42:01.769Z,9.60
2022-12-29T15:44:36.848Z,9.50
2022-12-29T15:47:10.796Z,9.40
2022-12-29T15:49:38.721Z,9.20
2022-12-29T15:52:10.351Z,9.10
2022-12-29T15:54:40.238Z,9.10
2022-12-29T15:57:24.860Z,9.00
2022-12-29T15:59:54.771Z,9.00
2022-12-29T16:02:25.366Z,9.00
2022-12-29T16:07:56.353Z,9.10
2022-12-29T16:10:34.528Z,9.00
2022-12-29T16:13:15.492Z,9.00
2022-12-29T16:15:46.708Z,9.00
2022-12-29T16:18:27.279Z,9.00
2022-12-29T16:20:57.251Z,8.90
2022-12-29T16:23:30.870Z,8.90
2022-12-29T16:26:01.587Z,8.90
2022-12-29T16:28:39.079Z,8.90
2022-12-29T16:31:19.717Z,9.00
2022-12-29T16:33:50.002Z,9.00
2022-12-29T16:36:35.010Z,9.10
2022-12-29T16:39:27.602Z,9.10
2022-12-29T16:41:58.651Z,9.10
2022-12-29T16:44:29.684Z,9.10
2022-12-29T16:47:20.205Z,9.00
2022-12-29T16:49:55.237Z,9.00
2022-12-29T16:52:29.373Z,9.00
2022-12-29T16:55:01.943Z,8.90
2022-12-29T16:57:37.146Z,9.00
2022-12-29T17:00:09.218Z,9.00
2022-12-29T17:02:45.445Z,8.90
2022-12-29T17:05:15.766Z,8.80
2022-12-29T17:07:44.123Z,8.90
2022-12-29T17:10:15.489Z,8.80
2022-12-29T17:12:47.833Z,8.80
2022-12-29T17:15:28.169Z,8.70
2022-12-29T17:17:58.106Z,8.70
2022-12-29T17:20:29.380Z,8.60
2022-12-29T17:22:58.597Z,8.50
2022-12-29T17:25:32.870Z,8.50
2022-12-29T17:28:06.143Z,8.40
2022-12-29T17:30:36.098Z,8.30
2022-12-29T17:33:08.815Z,8.30
2022-12-29T17:35:37.202Z,8.30
2022-12-29T17:38:23.783Z,8.20
2022-12-29T17:40:52.187Z,8.10
2022-12-29T17:43:22.096Z,8.10
2022-12-29T17:45:56.232Z,8.10
2022-12-29T17:48:25.729Z,8.10
2022-12-29T17:50:55.471Z,8.00
2022-12-29T17:53:27.814Z,8.10
2022-12-29T17:55:55.677Z,8.20
2022-12-29T17:58:27.743Z,8.20
2022-12-29T18:00:59.580Z,8.30
2022-12-29T18:03:31.118Z,8.30
2022-12-29T18:05:59.835Z,8.30
2022-12-29T18:08:29.381Z,8.20
2022-12-29T18:10:58.864Z,8.20
2022-12-29T18:13:43.718Z,8.20
2022-12-29T18:16:15.455Z,8.10
2022-12-29T18:18:43.515Z,8.00
2022-12-29T18:21:20.673Z,8.00
2022-12-29T18:23:49.507Z,8.00
2022-12-29T18:26:27.607Z,8.10
2022-12-29T18:28:57.617Z,9.20
2022-12-29T18:31:28.794Z,8.10
2022-12-29T18:33:59.706Z,8.20
2022-12-29T18:36:28.951Z,8.20
2022-12-29T18:38:56.845Z,8.20
2022-12-29T18:41:29.423Z,8.20
2022-12-29T18:43:59.474Z,8.10
2022-12-29T18:46:27.671Z,8.10
2022-12-29T18:48:56.052Z,8.10
2022-12-29T18:51:26.855Z,8.10
2022-12-29T18:53:55.135Z,8.10
2022-12-29T18:56:25.057Z,8.00
2022-12-29T18:58:53.899Z,8.00
2022-12-29T19:01:27.652Z,8.00
2022-12-29T19:03:55.813Z,8.10
2022-12-29T19:06:24.191Z,8.10
2022-12-29T19:08:52.076Z,8.10
2022-12-29T19:11:20.042Z,8.10
2022-12-29T19:13:48.236Z,8.10
2022-12-29T19:16:21.414Z,8.00
2022-12-29T19:19:07.922Z,8.10
2022-12-29T19:21:37.398Z,8.10
2022-12-29T19:24:05.528Z,8.20
2022-12-29T19:26:37.299Z,8.20
2022-12-29T19:29:07.317Z,8.30
2022-12-29T19:31:36.432Z,8.30
2022-12-29T19:34:06.100Z,8.30
2022-12-29T19:36:34.619Z,8.30
2022-12-29T19:39:02.511Z,8.40
2022-12-29T19:41:30.476Z,8.40
2022-12-29T19:43:58.433Z,8.50
2022-12-29T19:46:26.488Z,8.60
2022-12-29T19:48:58.580Z,8.60
2022-12-29T19:51:28.369Z,8.60
2022-12-29T19:53:58.404Z,8.50
2022-12-29T19:56:26.486Z,8.40
2022-12-29T19:58:54.367Z,8.30
2022-12-29T20:01:24.395Z,8.30
2022-12-29T20:03:52.776Z,8.40
2022-12-29T20:06:21.478Z,8.40
2022-12-29T20:08:50.724Z,8.50
2022-12-29T20:11:20.279Z,8.40
2022-12-29T20:13:49.370Z,8.50
2022-12-29T20:16:20.633Z,8.50
2022-12-29T20:18:50.657Z,8.40
2022-12-29T20:21:21.909Z,8.40
2022-12-29T20:23:53.178Z,8.30
2022-12-29T20:26:24.894Z,8.30
2022-12-29T20:28:53.812Z,8.30
2022-12-29T20:31:26.906Z,8.20
2022-12-29T20:33:55.282Z,8.20
2022-12-29T20:36:26.120Z,8.10
2022-12-29T20:38:59.593Z,8.10
2022-12-29T20:41:28.125Z,8.00
2022-12-29T20:43:56.037Z,7.90
2022-12-29T20:46:32.546Z,8.00
2022-12-29T20:49:03.414Z,7.90
2022-12-29T20:51:50.933Z,7.90
2022-12-29T20:54:21.020Z,7.90
2022-12-29T20:56:49.005Z,7.90
2022-12-29T20:59:27.442Z,7.90
2022-12-29T21:01:56.404Z,7.80
2022-12-29T21:04:25.049Z,7.80
2022-12-29T21:06:52.959Z,7.80
2022-12-29T21:09:22.855Z,7.90
2022-12-29T21:11:50.789Z,7.80
2022-12-29T21:14:18.748Z,7.70
2022-12-29T21:16:47.313Z,7.70
2022-12-29T21:19:15.927Z,7.80
2022-12-29T21:21:43.849Z,7.70
2022-12-29T21:24:11.724Z,7.70
2022-12-29T21:26:40.974Z,7.70
2022-12-29T21:29:08.895Z,7.70
2022-12-29T21:31:38.156Z,7.70
2022-12-29T21:34:07.465Z,7.70
2022-12-29T21:36:35.405Z,7.70
2022-12-29T21:39:04.253Z,7.70
2022-12-29T21:41:33.121Z,7.80
2022-12-29T21:44:20.325Z,7.80
2022-12-29T21:46:48.674Z,7.80
2022-12-29T21:49:17.059Z,7.80
2022-12-29T21:51:50.879Z,7.90
2022-12-29T21:54:41.860Z,8.00
2022-12-29T21:57:14.322Z,8.10
2022-12-29T22:00:04.787Z,8.10
2022-12-29T22:02:54.574Z,8.20
2022-12-29T22:05:40.201Z,8.20
2022-12-29T22:08:25.623Z,8.30
2022-12-29T22:11:11.033Z,7.20
2022-12-29T22:13:40.169Z,8.40
2022-12-29T22:16:12.910Z,8.30
2022-12-29T22:18:40.853Z,8.30
2022-12-29T22:21:11.831Z,8.20
2022-12-29T22:23:40.420Z,8.10
2022-12-29T22:26:11.678Z,8.00
2022-12-29T22:28:42.909Z,7.90
2022-12-29T22:31:27.728Z,7.90
2022-12-29T22:33:57.546Z,7.80
2022-12-29T22:36:26.779Z,7.80
2022-12-29T22:38:55.130Z,7.80
2022-12-29T22:41:23.374Z,7.80
2022-12-29T22:43:51.307Z,7.90
2022-12-29T22:46:20.740Z,7.90
2022-12-29T22:48:48.666Z,7.90
2022-12-29T22:51:16.553Z,7.90
2022-12-29T22:53:45.445Z,7.80
2022-12-29T22:56:14.823Z,7.70
2022-12-29T22:58:44.927Z,7.70
2022-12-29T23:01:15.941Z,7.70
2022-12-29T23:03:45.868Z,7.70
2022-12-29T23:06:17.847Z,7.80
2022-12-29T23:08:47.294Z,7.80
2022-12-29T23:11:15.560Z,7.80
2022-12-29T23:13:44.970Z,7.70
2022-12-29T23:16:13.724Z,7.70
2022-12-29T23:18:42.632Z,7.70
2022-12-29T23:21:12.647Z,7.70
2022-12-29T23:23:56.081Z,7.60
2022-12-29T23:26:27.434Z,7.60
2022-12-29T23:29:00.119Z,7.70
2022-12-29T23:31:29.271Z,7.70
2022-12-29T23:33:57.811Z,7.80
2022-12-29T23:36:27.591Z,7.80
2022-12-29T23:38:55.748Z,7.80
2022-12-29T23:41:24.408Z,7.90
2022-12-29T23:43:52.304Z,8.60
2022-12-29T23:46:23.553Z,7.90
2022-12-29T23:48:54.197Z,7.80
2022-12-29T23:51:23.147Z,7.80
2022-12-29T23:53:52.335Z,7.80
2022-12-29T23:56:23.712Z,7.80
2022-12-29T23:58:52.358Z,7.70
